createdAt,value
2023-03-02T00:00:20.241Z,192.80
2023-03-02T00:03:13.512Z,190.90
2023-03-02T00:05:45.730Z,204.10
2023-03-02T00:08:18.453Z,177.50
2023-03-02T00:10:49.642Z,156.60
2023-03-02T00:15:49.435Z,149.10
2023-03-02T00:18:20.094Z,156.20
2023-03-02T00:20:50.773Z,151.20
2023-03-02T00:23:22.065Z,163.50
2023-03-02T00:25:53.069Z,186.90
2023-03-02T00:30:53.109Z,166.80
2023-03-02T00:33:24.359Z,174.60
2023-03-02T00:35:55.075Z,205.40
2023-03-02T00:38:25.813Z,206.00
2023-03-02T00:40:56.556Z,257.80
2023-03-02T00:43:27.281Z,361.40
2023-03-02T00:45:57.978Z,382.90
2023-03-02T00:48:28.624Z,387.80
2023-03-02T00:51:01.968Z,367.10
2023-03-02T00:53:32.981Z,337.20
2023-03-02T00:56:04.040Z,315.10
2023-03-02T01:01:09.477Z,289.30
2023-03-02T01:03:40.363Z,278.90
2023-03-02T01:06:17.586Z,259.40
2023-03-02T01:08:49.000Z,258.00
2023-03-02T01:11:22.158Z,260.90
2023-03-02T01:13:52.811Z,245.00
2023-03-02T01:16:23.694Z,230.30
2023-03-02T01:18:54.372Z,186.80
2023-03-02T01:21:25.453Z,180.50
2023-03-02T01:23:56.153Z,192.00
2023-03-02T01:26:26.892Z,211.80
2023-03-02T01:28:57.606Z,218.70
2023-03-02T01:31:29.166Z,193.70
2023-03-02T01:33:59.923Z,187.00
2023-03-02T01:36:31.061Z,191.30
2023-03-02T01:39:01.992Z,198.80
2023-03-02T01:41:32.968Z,188.70
2023-03-02T01:44:03.784Z,205.10
2023-03-02T01:46:34.675Z,179.40
2023-03-02T01:49:11.612Z,181.40
2023-03-02T01:51:45.784Z,182.10
2023-03-02T01:54:20.372Z,191.00
2023-03-02T01:56:55.695Z,199.20
2023-03-02T01:59:30.701Z,214.30
2023-03-02T02:02:05.572Z,218.40
2023-03-02T02:04:39.977Z,223.80
2023-03-02T02:07:11.093Z,229.00
2023-03-02T02:12:16.645Z,229.60
2023-03-02T02:14:48.471Z,237.00
2023-03-02T02:17:19.917Z,230.10
2023-03-02T02:20:01.930Z,234.20
2023-03-02T02:22:40.566Z,235.60
2023-03-02T02:25:26.397Z,221.90
2023-03-02T02:27:58.026Z,228.40
2023-03-02T02:30:29.113Z,232.40
2023-03-02T02:34:01.839Z,232.60
2023-03-02T02:37:38.062Z,237.90
2023-03-02T02:40:17.455Z,230.00
2023-03-02T02:42:51.558Z,233.60
2023-03-02T02:45:25.438Z,238.90
2023-03-02T02:47:57.391Z,236.60
2023-03-02T02:50:36.172Z,227.70
2023-03-02T02:53:12.593Z,240.80
2023-03-02T02:55:45.292Z,244.80
2023-03-02T02:58:26.169Z,238.50
2023-03-02T03:00:57.228Z,235.80
2023-03-02T03:03:31.718Z,234.70
2023-03-02T03:06:04.183Z,223.00
2023-03-02T03:08:54.160Z,223.50
2023-03-02T03:11:27.258Z,221.90
2023-03-02T03:14:05.465Z,219.40
2023-03-02T03:16:37.984Z,207.10
2023-03-02T03:19:13.466Z,218.80
2023-03-02T03:21:44.233Z,208.90
2023-03-02T03:24:15.359Z,220.80
2023-03-02T03:29:16.847Z,228.60
2023-03-02T03:31:47.586Z,222.20
2023-03-02T03:34:18.448Z,235.50
2023-03-02T03:36:49.334Z,235.60
2023-03-02T03:39:20.890Z,250.10
2023-03-02T03:41:51.604Z,248.60
2023-03-02T03:44:22.746Z,262.60
2023-03-02T03:49:22.744Z,422.30
2023-03-02T03:51:53.790Z,409.50
2023-03-02T03:54:24.575Z,338.10
2023-03-02T03:56:55.425Z,279.10
2023-03-02T03:59:27.014Z,251.60
2023-03-02T04:01:59.536Z,232.50
2023-03-02T04:04:32.520Z,207.60
2023-03-02T04:07:03.322Z,188.90
2023-03-02T04:09:33.952Z,179.70
2023-03-02T04:12:07.534Z,168.20
2023-03-02T04:14:38.316Z,170.40
2023-03-02T04:17:09.086Z,170.70
2023-03-02T04:19:39.716Z,168.00
2023-03-02T04:22:10.401Z,154.40
2023-03-02T04:24:41.032Z,160.90
2023-03-02T04:27:12.060Z,141.10
2023-03-02T04:29:43.177Z,146.20
2023-03-02T04:34:43.086Z,151.00
2023-03-02T04:37:13.851Z,141.40
2023-03-02T04:39:45.043Z,150.70
2023-03-02T04:44:45.475Z,135.20
2023-03-02T04:47:16.160Z,146.40
2023-03-02T04:49:46.800Z,140.40
2023-03-02T04:52:17.890Z,142.50
2023-03-02T04:57:17.804Z,147.00
2023-03-02T04:59:48.479Z,165.00
2023-03-02T05:02:19.280Z,167.50
2023-03-02T05:04:50.037Z,140.60
2023-03-02T05:07:21.148Z,141.60
2023-03-02T05:12:20.957Z,139.70
2023-03-02T05:14:51.597Z,135.70
2023-03-02T05:17:22.340Z,147.80
2023-03-02T05:19:53.041Z,142.80
2023-03-02T05:22:23.716Z,125.60
2023-03-02T05:24:54.417Z,138.40
2023-03-02T05:27:25.110Z,147.50
2023-03-02T05:29:55.716Z,142.70
2023-03-02T05:32:26.491Z,143.10
2023-03-02T05:34:57.094Z,148.30
2023-03-02T05:37:27.872Z,148.60
2023-03-02T05:39:58.532Z,149.10
2023-03-02T05:42:29.183Z,145.50
2023-03-02T05:44:59.802Z,147.70
2023-03-02T05:47:30.865Z,142.00
2023-03-02T05:50:01.502Z,130.30
2023-03-02T05:52:32.200Z,141.30
2023-03-02T05:55:02.812Z,130.90
2023-03-02T05:57:33.676Z,129.90
2023-03-02T06:00:05.432Z,114.50
2023-03-02T06:02:44.430Z,115.80
2023-03-02T06:07:46.524Z,114.70
2023-03-02T06:10:17.570Z,115.90
2023-03-02T06:12:48.774Z,112.40
2023-03-02T06:15:20.001Z,114.60
2023-03-02T06:17:50.924Z,99.10
2023-03-02T06:20:21.772Z,99.50
2023-03-02T06:22:52.789Z,92.50
2023-03-02T06:27:53.515Z,89.60
2023-03-02T06:30:28.148Z,80.80
2023-03-02T06:32:59.140Z,98.60
2023-03-02T06:35:30.060Z,79.70
2023-03-02T06:38:00.993Z,82.60
2023-03-02T06:40:31.644Z,85.30
2023-03-02T06:43:04.234Z,89.60
2023-03-02T06:45:35.133Z,83.20
2023-03-02T06:48:07.339Z,75.00
2023-03-02T06:50:37.964Z,90.60
2023-03-02T06:53:08.900Z,71.20
2023-03-02T06:55:39.561Z,79.80
2023-03-02T06:58:10.303Z,96.30
2023-03-02T07:00:41.685Z,81.50
2023-03-02T07:03:12.471Z,84.40
2023-03-02T07:05:46.353Z,81.80
2023-03-02T07:08:17.298Z,78.50
2023-03-02T07:10:47.991Z,70.60
2023-03-02T07:13:18.783Z,77.70
2023-03-02T07:15:49.668Z,74.70
2023-03-02T07:18:20.441Z,69.00
2023-03-02T07:20:51.167Z,67.40
2023-03-02T07:23:21.873Z,80.00
2023-03-02T07:25:52.497Z,79.10
2023-03-02T07:28:23.328Z,81.70
2023-03-02T07:30:54.171Z,86.10
2023-03-02T07:33:25.382Z,86.60
2023-03-02T07:38:25.333Z,102.60
2023-03-02T07:40:56.050Z,86.80
2023-03-02T07:43:26.782Z,106.30
2023-03-02T07:45:59.617Z,90.00
2023-03-02T07:48:30.601Z,93.70
2023-03-02T07:51:02.400Z,81.30
2023-03-02T07:53:33.492Z,90.20
2023-03-02T07:58:36.548Z,65.50
2023-03-02T08:03:36.538Z,81.30
2023-03-02T08:06:10.046Z,86.90
2023-03-02T08:08:40.772Z,86.00
2023-03-02T08:11:13.783Z,89.60
2023-03-02T08:13:45.223Z,89.80
2023-03-02T08:16:16.999Z,71.70
2023-03-02T08:18:48.551Z,70.50
2023-03-02T08:21:20.878Z,79.50
2023-03-02T08:23:52.360Z,78.50
2023-03-02T08:26:23.351Z,93.40
2023-03-02T08:28:54.518Z,119.20
2023-03-02T08:33:55.225Z,94.70
2023-03-02T08:36:26.152Z,97.50
2023-03-02T08:38:56.900Z,86.90
2023-03-02T08:41:27.677Z,74.80
2023-03-02T08:43:58.360Z,64.10
2023-03-02T08:46:29.080Z,64.60
2023-03-02T08:49:00.072Z,72.10
2023-03-02T08:51:31.085Z,78.20
2023-03-02T08:56:33.274Z,63.00
2023-03-02T08:59:06.513Z,62.60
2023-03-02T09:01:38.739Z,48.60
2023-03-02T09:04:10.931Z,59.50
2023-03-02T09:06:44.139Z,66.90
2023-03-02T09:09:16.271Z,54.50
2023-03-02T09:11:47.008Z,49.80
2023-03-02T09:14:17.762Z,60.40
2023-03-02T09:16:48.828Z,56.10
2023-03-02T09:19:20.093Z,58.80
2023-03-02T09:21:50.929Z,57.70
2023-03-02T09:24:21.745Z,54.60
2023-03-02T09:26:52.452Z,57.40
2023-03-02T09:29:23.353Z,53.90
2023-03-02T09:31:54.555Z,54.00
2023-03-02T09:34:25.327Z,81.20
2023-03-02T09:36:55.987Z,65.60
2023-03-02T09:39:26.789Z,49.10
2023-03-02T09:42:14.755Z,50.70
2023-03-02T09:45:12.340Z,53.50
2023-03-02T09:47:52.786Z,69.50
2023-03-02T09:50:34.078Z,73.80
2023-03-02T09:53:22.965Z,69.30
2023-03-02T09:55:56.767Z,68.60
2023-03-02T09:58:34.290Z,80.50
2023-03-02T10:01:11.693Z,71.00
2023-03-02T10:03:48.645Z,78.00
2023-03-02T10:06:19.380Z,78.40
2023-03-02T10:08:50.338Z,72.60
2023-03-02T10:11:30.883Z,79.20
2023-03-02T10:14:07.403Z,78.90
2023-03-02T10:16:41.864Z,81.90
2023-03-02T10:19:19.959Z,82.00
2023-03-02T10:21:58.175Z,89.20
2023-03-02T10:24:37.594Z,77.20
2023-03-02T10:27:18.353Z,64.00
2023-03-02T10:29:56.933Z,65.10
2023-03-02T10:32:32.565Z,61.60
2023-03-02T10:35:13.999Z,59.40
2023-03-02T10:37:45.078Z,61.60
2023-03-02T10:42:55.837Z,76.80
2023-03-02T10:45:30.530Z,63.00
2023-03-02T10:48:06.281Z,60.00
2023-03-02T10:50:37.673Z,58.30
2023-03-02T10:53:16.035Z,59.30
2023-03-02T10:55:48.419Z,53.20
2023-03-02T10:58:26.686Z,66.00
2023-03-02T11:01:02.509Z,63.20
2023-03-02T11:03:34.288Z,64.30
2023-03-02T11:06:19.111Z,59.30
2023-03-02T11:09:05.756Z,62.90
2023-03-02T11:11:48.670Z,65.90
2023-03-02T11:16:50.670Z,69.80
2023-03-02T11:19:29.865Z,68.30
2023-03-02T11:22:10.078Z,75.30
2023-03-02T11:24:46.505Z,74.70
2023-03-02T11:27:28.014Z,73.10
2023-03-02T11:30:14.209Z,74.70
2023-03-02T11:32:52.883Z,72.50
2023-03-02T11:35:33.341Z,79.30
2023-03-02T11:38:13.584Z,77.80
2023-03-02T11:40:49.134Z,77.00
2023-03-02T11:43:19.879Z,64.40
2023-03-02T11:45:57.115Z,62.00
2023-03-02T11:48:33.414Z,58.60
2023-03-02T11:51:07.021Z,66.50
2023-03-02T11:53:46.319Z,63.00
2023-03-02T11:56:17.345Z,61.00
2023-03-02T12:01:24.785Z,58.10
2023-03-02T12:06:42.827Z,55.90
2023-03-02T12:09:34.264Z,54.80
2023-03-02T12:12:39.058Z,59.70
2023-03-02T12:15:40.877Z,57.30
2023-03-02T12:18:44.360Z,53.00
2023-03-02T12:21:17.966Z,50.80
2023-03-02T12:24:02.182Z,49.20
2023-03-02T12:26:36.437Z,52.70
2023-03-02T12:29:23.156Z,47.50
2023-03-02T12:31:56.553Z,52.70
2023-03-02T12:34:38.300Z,64.50
2023-03-02T12:37:18.295Z,59.90
2023-03-02T12:40:19.407Z,81.30
2023-03-02T12:43:11.042Z,64.50
2023-03-02T12:45:52.968Z,64.60
2023-03-02T12:48:29.511Z,59.30
2023-03-02T12:51:03.107Z,68.70
2023-03-02T12:53:33.807Z,69.50
2023-03-02T12:56:04.936Z,83.60
2023-03-02T12:58:36.399Z,80.80
2023-03-02T13:01:07.988Z,86.20
2023-03-02T13:03:48.051Z,87.90
2023-03-02T13:06:20.672Z,87.70
2023-03-02T13:08:53.792Z,82.10
2023-03-02T13:11:28.125Z,84.30
2023-03-02T13:13:59.617Z,84.90
2023-03-02T13:16:32.882Z,87.80
2023-03-02T13:19:09.271Z,93.70
2023-03-02T13:21:40.820Z,89.60
2023-03-02T13:24:33.354Z,93.60
2023-03-02T13:27:14.615Z,82.50
2023-03-02T13:29:45.424Z,84.40
2023-03-02T13:32:21.282Z,87.60
2023-03-02T13:34:54.626Z,86.10
2023-03-02T13:37:35.429Z,85.90
2023-03-02T13:40:28.529Z,90.60
2023-03-02T13:42:59.758Z,88.70
2023-03-02T13:45:31.718Z,85.70
2023-03-02T13:48:15.469Z,74.80
2023-03-02T13:50:56.217Z,66.40
2023-03-02T13:53:27.946Z,66.60
2023-03-02T13:55:59.702Z,68.00
2023-03-02T13:58:33.917Z,68.40
2023-03-02T14:01:05.998Z,62.30
2023-03-02T14:03:36.773Z,55.20
2023-03-02T14:06:11.385Z,53.30
2023-03-02T14:08:42.163Z,54.40
2023-03-02T14:11:14.085Z,50.40
2023-03-02T14:13:49.120Z,52.00
2023-03-02T14:16:20.065Z,53.90
2023-03-02T14:18:51.939Z,62.30
2023-03-02T14:21:25.054Z,94.50
2023-03-02T14:23:56.201Z,65.20
2023-03-02T14:26:33.927Z,62.40
2023-03-02T14:29:14.579Z,49.10
2023-03-02T14:31:45.256Z,56.80
2023-03-02T14:34:17.069Z,51.40
2023-03-02T14:36:49.416Z,57.10
2023-03-02T14:39:23.982Z,63.10
2023-03-02T14:41:55.791Z,56.50
2023-03-02T14:44:26.972Z,56.00
2023-03-02T14:46:57.688Z,55.40
2023-03-02T14:52:01.547Z,54.20
2023-03-02T14:54:40.989Z,70.10
2023-03-02T14:57:18.414Z,69.90
2023-03-02T14:59:49.406Z,70.10
2023-03-02T15:02:26.065Z,62.80
2023-03-02T15:04:57.787Z,63.70
2023-03-02T15:07:29.366Z,62.50
2023-03-02T15:10:00.698Z,65.10
2023-03-02T15:12:31.392Z,58.80
2023-03-02T15:15:02.254Z,53.60
2023-03-02T15:17:32.955Z,52.80
2023-03-02T15:20:11.063Z,53.40
2023-03-02T15:22:41.698Z,51.90
2023-03-02T15:25:12.593Z,55.60
2023-03-02T15:27:43.338Z,60.00
2023-03-02T15:30:15.155Z,68.80
2023-03-02T15:32:46.600Z,77.50
2023-03-02T15:35:17.418Z,70.60
2023-03-02T15:37:48.149Z,72.10
2023-03-02T15:40:19.044Z,75.60
2023-03-02T15:42:49.796Z,77.60
2023-03-02T15:45:20.588Z,73.00
2023-03-02T15:47:51.327Z,73.50
2023-03-02T15:50:22.080Z,73.80
2023-03-02T15:53:01.821Z,80.50
2023-03-02T15:55:32.953Z,72.70
2023-03-02T15:58:03.690Z,75.20
2023-03-02T16:00:34.385Z,69.00
2023-03-02T16:03:06.172Z,68.20
2023-03-02T16:05:36.911Z,72.60
2023-03-02T16:10:37.555Z,61.80
2023-03-02T16:13:08.928Z,68.60
2023-03-02T16:15:41.512Z,60.00
2023-03-02T16:18:12.600Z,65.40
2023-03-02T16:23:13.251Z,64.70
2023-03-02T16:25:44.892Z,68.10
2023-03-02T16:28:16.729Z,72.20
2023-03-02T16:30:48.006Z,57.10
2023-03-02T16:33:19.377Z,54.90
2023-03-02T16:35:50.302Z,45.60
2023-03-02T16:38:21.102Z,48.70
2023-03-02T16:40:51.901Z,55.60
2023-03-02T16:43:23.152Z,60.30
2023-03-02T16:45:54.265Z,83.50
2023-03-02T16:48:25.233Z,72.00
2023-03-02T16:50:59.947Z,53.00
2023-03-02T16:53:30.879Z,60.90
2023-03-02T16:58:30.706Z,68.00
2023-03-02T17:01:01.592Z,71.60
2023-03-02T17:03:32.688Z,66.80
2023-03-02T17:06:04.755Z,78.40
2023-03-02T17:08:35.817Z,81.50
2023-03-02T17:11:07.165Z,76.40
2023-03-02T17:16:07.735Z,72.40
2023-03-02T17:18:38.499Z,79.80
2023-03-02T17:21:09.365Z,74.40
2023-03-02T17:23:40.124Z,65.20
2023-03-02T17:26:10.866Z,63.20
2023-03-02T17:28:41.711Z,70.10
2023-03-02T17:31:12.483Z,78.50
2023-03-02T17:33:43.131Z,68.20
2023-03-02T17:36:13.901Z,61.80
2023-03-02T17:38:45.153Z,59.30
2023-03-02T17:41:15.969Z,58.50
2023-03-02T17:43:46.579Z,60.90
2023-03-02T17:46:19.540Z,62.10
2023-03-02T17:48:54.122Z,56.20
2023-03-02T17:51:26.615Z,68.10
2023-03-02T17:53:58.415Z,66.80
2023-03-02T17:56:30.206Z,58.40
2023-03-02T17:59:03.282Z,58.90
2023-03-02T18:01:34.899Z,59.00
2023-03-02T18:04:05.671Z,59.70
2023-03-02T18:06:36.350Z,51.40
2023-03-02T18:09:07.337Z,52.90
2023-03-02T18:11:38.163Z,49.40
2023-03-02T18:14:09.251Z,51.70
2023-03-02T18:19:09.037Z,61.00
2023-03-02T18:21:40.196Z,56.10
2023-03-02T18:24:11.404Z,48.10
2023-03-02T18:26:42.119Z,51.10
2023-03-02T18:29:12.797Z,52.50
2023-03-02T18:31:43.570Z,59.40
2023-03-02T18:34:14.470Z,56.00
2023-03-02T18:36:45.358Z,61.80
2023-03-02T18:39:16.159Z,53.80
2023-03-02T18:41:46.836Z,57.30
2023-03-02T18:44:17.434Z,61.50
2023-03-02T18:46:48.208Z,59.60
2023-03-02T18:49:18.884Z,52.30
2023-03-02T18:51:49.690Z,54.00
2023-03-02T18:54:20.699Z,50.60
2023-03-02T18:59:20.685Z,50.20
2023-03-02T19:01:51.431Z,48.40
2023-03-02T19:04:22.406Z,60.70
2023-03-02T19:06:54.055Z,59.90
2023-03-02T19:09:25.464Z,62.80
2023-03-02T19:11:56.258Z,68.20
2023-03-02T19:14:27.595Z,69.30
2023-03-02T19:16:58.273Z,81.30
2023-03-02T19:19:28.924Z,71.80
2023-03-02T19:21:59.942Z,61.50
2023-03-02T19:24:30.669Z,62.60
2023-03-02T19:27:01.413Z,62.10
2023-03-02T19:29:31.966Z,50.70
2023-03-02T19:32:02.864Z,61.70
2023-03-02T19:34:33.547Z,61.20
2023-03-02T19:37:04.237Z,64.50
2023-03-02T19:39:35.083Z,66.20
2023-03-02T19:42:06.446Z,76.20
2023-03-02T19:44:37.329Z,76.00
2023-03-02T19:49:37.450Z,72.70
2023-03-02T19:52:08.225Z,66.80
2023-03-02T19:54:38.897Z,70.40
2023-03-02T19:57:09.555Z,64.40
2023-03-02T19:59:40.583Z,71.80
2023-03-02T20:02:11.797Z,79.90
2023-03-02T20:04:43.088Z,62.70
2023-03-02T20:07:14.380Z,59.60
2023-03-02T20:09:45.839Z,60.00
2023-03-02T20:12:16.624Z,60.90
2023-03-02T20:14:47.471Z,61.80
2023-03-02T20:17:19.297Z,57.30
2023-03-02T20:19:50.804Z,58.50
2023-03-02T20:22:21.743Z,66.00
2023-03-02T20:24:53.454Z,58.60
2023-03-02T20:27:24.377Z,59.90
2023-03-02T20:29:55.208Z,55.50
2023-03-02T20:32:26.229Z,60.20
2023-03-02T20:34:57.051Z,52.60
2023-03-02T20:37:28.181Z,60.50
2023-03-02T20:42:28.446Z,60.30
2023-03-02T20:44:59.469Z,60.90
2023-03-02T20:47:30.529Z,72.90
2023-03-02T20:50:01.216Z,71.90
2023-03-02T20:52:32.279Z,65.50
2023-03-02T20:57:32.255Z,60.30
2023-03-02T21:00:04.266Z,51.00
2023-03-02T21:02:35.018Z,49.90
2023-03-02T21:05:06.241Z,52.70
2023-03-02T21:07:37.143Z,50.00
2023-03-02T21:10:13.965Z,51.10
2023-03-02T21:12:45.123Z,48.20
2023-03-02T21:17:45.875Z,33.90
2023-03-02T21:22:49.274Z,36.10
2023-03-02T21:27:49.779Z,28.10
2023-03-02T21:30:23.533Z,33.40
2023-03-02T21:32:54.320Z,34.00
2023-03-02T21:35:25.410Z,41.00
2023-03-02T21:37:59.051Z,46.90
2023-03-02T21:40:32.540Z,53.20
2023-03-02T21:43:03.820Z,43.10
2023-03-02T21:45:35.763Z,40.70
2023-03-02T21:48:08.880Z,42.80
2023-03-02T21:50:39.937Z,40.50
2023-03-02T21:55:40.798Z,39.20
2023-03-02T21:58:11.610Z,36.90
2023-03-02T22:00:47.000Z,38.20
2023-03-02T22:03:17.740Z,38.80
2023-03-02T22:05:48.626Z,46.30
2023-03-02T22:08:20.798Z,42.80
2023-03-02T22:10:51.893Z,35.30
2023-03-02T22:16:09.013Z,35.80
2023-03-02T22:18:40.523Z,34.40
2023-03-02T22:21:27.839Z,40.80
2023-03-02T22:24:09.809Z,38.60
2023-03-02T22:26:42.773Z,35.60
2023-03-02T22:29:21.956Z,43.30
2023-03-02T22:31:54.436Z,39.00
2023-03-02T22:34:27.904Z,43.90
2023-03-02T22:37:02.896Z,41.50
2023-03-02T22:39:35.089Z,44.30
2023-03-02T22:42:14.183Z,40.00
2023-03-02T22:44:47.556Z,41.00
2023-03-02T22:47:20.682Z,45.90
2023-03-02T22:49:56.462Z,48.00
2023-03-02T22:52:36.267Z,44.10
2023-03-02T22:55:34.017Z,46.90
2023-03-02T22:58:24.897Z,49.40
2023-03-02T23:00:56.384Z,50.80
2023-03-02T23:03:37.392Z,48.60
2023-03-02T23:06:24.714Z,47.90
2023-03-02T23:08:57.194Z,52.70
2023-03-02T23:11:28.856Z,52.70
2023-03-02T23:14:02.394Z,60.70
2023-03-02T23:16:36.532Z,57.10
2023-03-02T23:19:07.240Z,55.50
2023-03-02T23:21:41.122Z,57.40
2023-03-02T23:24:11.855Z,56.00
2023-03-02T23:26:42.565Z,51.00
2023-03-02T23:29:13.190Z,57.40
2023-03-02T23:31:44.269Z,59.40
2023-03-02T23:36:44.696Z,53.50
2023-03-02T23:39:15.544Z,53.30
2023-03-02T23:41:46.336Z,53.40
2023-03-02T23:44:17.883Z,59.00
2023-03-02T23:46:48.814Z,54.10
2023-03-02T23:49:20.156Z,55.50
2023-03-02T23:51:50.851Z,50.60
2023-03-02T23:54:21.488Z,59.20
2023-03-02T23:56:52.130Z,54.80
2023-03-02T23:59:22.736Z,51.10
